createdAt,value
2019-01-03T21:37:01.401Z,11.90
2019-01-03T21:39:28.137Z,11.63
2019-01-03T21:41:55.681Z,13.40
2019-01-03T21:44:22.750Z,11.87
2019-01-03T21:46:49.488Z,12.83
2019-01-03T21:49:16.335Z,14.63
2019-01-03T21:51:43.195Z,16.77
2019-01-03T21:54:09.954Z,13.70
2019-01-03T21:56:36.915Z,14.83
2019-01-03T21:59:03.763Z,13.80
2019-01-03T22:01:30.606Z,15.40
2019-01-03T22:03:57.315Z,15.50
2019-01-03T22:06:24.215Z,14.90
2019-01-03T22:08:51.023Z,15.87
2019-01-03T22:11:18.120Z,14.73
2019-01-03T22:13:44.881Z,14.90
2019-01-03T22:16:11.759Z,15.37
2019-01-03T22:18:38.611Z,16.23
2019-01-03T22:21:05.412Z,17.67
2019-01-03T22:23:32.251Z,17.53
2019-01-03T22:25:59.136Z,18.17
2019-01-03T22:28:25.871Z,16.87
2019-01-03T22:30:52.647Z,17.63
2019-01-03T22:33:19.637Z,16.53
2019-01-03T22:35:46.405Z,16.23
2019-01-03T22:38:13.335Z,17.37
2019-01-03T22:40:40.095Z,17.07
2019-01-03T22:43:06.840Z,17.27
2019-01-03T22:45:33.590Z,17.63
2019-01-03T22:48:00.419Z,20.68
2019-01-03T22:50:27.160Z,18.23
2019-01-03T22:52:53.879Z,18.03
2019-01-03T22:55:20.663Z,18.33
2019-01-03T22:57:47.462Z,18.07
2019-01-03T23:00:26.303Z,18.27
2019-01-03T23:02:53.051Z,18.07
2019-01-03T23:05:19.815Z,16.73
2019-01-03T23:07:46.556Z,17.77
2019-01-03T23:10:13.306Z,18.10
2019-01-03T23:12:40.215Z,15.97
2019-01-03T23:15:07.176Z,17.73
2019-01-03T23:17:34.019Z,16.67
2019-01-03T23:20:00.891Z,16.33
2019-01-03T23:22:27.645Z,17.90
2019-01-03T23:24:54.395Z,17.47
2019-01-03T23:27:21.187Z,17.77
2019-01-03T23:29:48.019Z,16.73
2019-01-03T23:32:14.847Z,17.77
2019-01-03T23:34:41.678Z,17.60
2019-01-03T23:37:08.447Z,16.87
2019-01-03T23:39:35.168Z,17.30
2019-01-03T23:42:01.995Z,17.57
2019-01-03T23:44:28.744Z,16.83
2019-01-03T23:46:55.587Z,18.17
2019-01-03T23:49:22.555Z,18.13
2019-01-03T23:51:49.324Z,19.77
2019-01-03T23:54:16.283Z,16.87
2019-01-03T23:56:43.017Z,17.60
2019-01-03T23:59:09.719Z,17.90
